Time;durP1;ratioP1;P1;durP2;ratioP2;P2;SDS_P1;SDS_P2;PMS_P1;PMS_P2;Temp;Humidity;BMP_temperature;BMP_pressure;BME280_temperature;BME280_humidity;BME280_pressure;Samples;Min_cycle;Max_cycle;Signal;HPM_P1;HPM_P2
2023/06/21 00:02:09;;;;;;;13.50;11.37;;;;;;;;;;5093366;28;20119;-66
2023/06/21 00:04:34;;;;;;;14.05;11.50;;;;;;;;;;5076026;28;20267;-66
2023/06/21 00:06:59;;;;;;;14.40;12.27;;;;;;;;;;5093119;28;20137;-65
2023/06/21 00:09:24;;;;;;;13.65;12.07;;;;;;;;;;5080867;28;20036;-66
2023/06/21 00:11:50;;;;;;;13.52;12.23;;;;;;;;;;5093361;28;20102;-65
2023/06/21 00:14:15;;;;;;;12.82;11.52;;;;;;;;;;5092645;28;20032;-65
2023/06/21 00:16:40;;;;;;;15.10;13.50;;;;;;;;;;5092738;28;20466;-65
2023/06/21 00:19:06;;;;;;;14.43;12.73;;;;;;;;;;5093543;28;20343;-65
2023/06/21 00:21:31;;;;;;;13.50;12.15;;;;;;;;;;5093331;28;20071;-66
2023/06/21 00:23:56;;;;;;;14.85;13.23;;;;;;;;;;5093688;28;20028;-66
2023/06/21 00:26:22;;;;;;;15.93;14.23;;;;;;;;;;5093090;28;20081;-66
2023/06/21 00:28:47;;;;;;;15.85;13.15;;;;;;;;;;5092986;28;20738;-66
2023/06/21 00:31:12;;;;;;;16.30;14.48;;;;;;;;;;5092422;28;20036;-66
2023/06/21 00:33:38;;;;;;;15.30;11.07;;;;;;;;;;5091944;28;20055;-66
2023/06/21 00:36:03;;;;;;;13.63;12.20;;;;;;;;;;5092724;28;20069;-66
2023/06/21 00:38:34;;;;;;;15.63;13.85;;;;;;;;;;5093059;28;20027;-66
2023/06/21 00:41:00;;;;;;;18.52;14.23;;;;;;;;;;5091323;28;20120;-66
2023/06/21 00:43:25;;;;;;;18.15;14.65;;;;;;;;;;5080808;28;20479;-66
2023/06/21 00:45:51;;;;;;;17.52;13.57;;;;;;;;;;5092599;28;20027;-66
2023/06/21 00:48:16;;;;;;;14.87;13.47;;;;;;;;;;5093522;28;20028;-66
2023/06/21 00:50:41;;;;;;;15.03;13.20;;;;;;;;;;5092767;28;20313;-66
2023/06/21 00:53:07;;;;;;;18.67;15.70;;;;;;;;;;5091864;28;20282;-66
2023/06/21 00:55:32;;;;;;;15.35;13.75;;;;;;;;;;5092791;28;20024;-66
2023/06/21 00:57:58;;;;;;;22.08;14.68;;;;;;;;;;5092560;28;20020;-66
2023/06/21 01:00:25;;;;;;;14.85;13.30;;;;;;;;;;5091365;28;20024;-66
2023/06/21 01:02:51;;;;;;;15.45;13.65;;;;;;;;;;5092242;28;20051;-66
2023/06/21 01:05:17;;;;;;;16.30;14.57;;;;;;;;;;5092583;28;20079;-66
2023/06/21 01:07:48;;;;;;;17.45;15.73;;;;;;;;;;5091871;28;20445;-66
2023/06/21 01:10:17;;;;;;;16.80;14.52;;;;;;;;;;5079326;28;20463;-66
2023/06/21 01:12:48;;;;;;;17.73;14.38;;;;;;;;;;5081679;28;20390;-66
2023/06/21 01:15:23;;;;;;;18.65;16.75;;;;;;;;;;5085902;28;20053;-66
2023/06/21 01:17:48;;;;;;;;;;;;;;;;;;5088770;28;20062;-66
2023/06/21 01:20:14;;;;;;;15.57;13.77;;;;;;;;;;5092865;28;20460;-66
2023/06/21 01:22:46;;;;;;;15.27;13.77;;;;;;;;;;5092681;28;20020;-66
2023/06/21 01:25:24;;;;;;;20.10;15.98;;;;;;;;;;5092469;28;20497;-66
2023/06/21 01:28:09;;;;;;;16.85;15.20;;;;;;;;;;5092447;28;20470;-66
2023/06/21 01:30:34;;;;;;;16.05;14.40;;;;;;;;;;5093111;28;20107;-66
2023/06/21 01:33:00;;;;;;;16.83;15.23;;;;;;;;;;5088600;28;20580;-66
2023/06/21 01:35:25;;;;;;;16.10;14.15;;;;;;;;;;5083007;28;20069;-66
2023/06/21 01:37:51;;;;;;;17.92;16.10;;;;;;;;;;5088655;28;20035;-66
2023/06/21 01:40:16;;;;;;;17.15;15.35;;;;;;;;;;5083011;28;20106;-65
2023/06/21 01:42:41;;;;;;;15.47;13.90;;;;;;;;;;5092347;28;20375;-66
2023/06/21 01:45:07;;;;;;;22.33;15.27;;;;;;;;;;5091204;28;20367;-65
2023/06/21 01:47:33;;;;;;;21.17;15.55;;;;;;;;;;5091512;28;20035;-65
2023/06/21 01:49:59;;;;;;;18.35;16.45;;;;;;;;;;5092562;28;20016;-65
2023/06/21 01:52:24;;;;;;;18.70;16.90;;;;;;;;;;5092072;28;20046;-65
2023/06/21 01:54:50;;;;;;;18.90;17.00;;;;;;;;;;5092529;28;20024;-65
2023/06/21 01:57:16;;;;;;;20.23;18.15;;;;;;;;;;5092503;28;20035;-65
2023/06/21 01:59:41;;;;;;;19.00;17.05;;;;;;;;;;5092413;28;20051;-65
2023/06/21 02:02:08;;;;;;;21.85;18.27;;;;;;;;;;5091576;28;20030;-65
2023/06/21 02:04:33;;;;;;;22.10;19.08;;;;;;;;;;5092124;28;20020;-65
2023/06/21 02:07:00;;;;;;;22.42;20.02;;;;;;;;;;5092314;28;20115;-65
2023/06/21 02:09:26;;;;;;;20.60;17.92;;;;;;;;;;5092003;28;20058;-65
2023/06/21 02:11:52;;;;;;;19.13;17.23;;;;;;;;;;5091195;28;21400;-65
2023/06/21 02:14:18;;;;;;;22.13;16.92;;;;;;;;;;5092147;28;20059;-65
2023/06/21 02:16:43;;;;;;;19.90;17.88;;;;;;;;;;5091623;28;20028;-66
2023/06/21 02:19:09;;;;;;;19.23;17.30;;;;;;;;;;5092013;28;20390;-66
2023/06/21 02:21:37;;;;;;;20.38;18.30;;;;;;;;;;5091368;28;20089;-66
2023/06/21 02:24:02;;;;;;;19.13;16.75;;;;;;;;;;5091946;28;20917;-66
2023/06/21 02:26:27;;;;;;;17.17;15.50;;;;;;;;;;5091240;28;20016;-66
2023/06/21 02:28:53;;;;;;;23.05;17.08;;;;;;;;;;5091571;28;20051;-66
2023/06/21 02:31:19;;;;;;;18.45;16.60;;;;;;;;;;5090984;28;20095;-66
2023/06/21 02:33:44;;;;;;;18.52;16.52;;;;;;;;;;5091850;28;20035;-66
2023/06/21 02:36:10;;;;;;;18.95;16.88;;;;;;;;;;5088862;28;20020;-66
2023/06/21 02:38:35;;;;;;;20.38;15.82;;;;;;;;;;5082764;28;20036;-66
2023/06/21 02:41:01;;;;;;;17.47;15.40;;;;;;;;;;5090099;28;20514;-65
2023/06/21 02:43:26;;;;;;;18.02;16.02;;;;;;;;;;5091673;28;20273;-65
2023/06/21 02:45:51;;;;;;;17.27;15.57;;;;;;;;;;5091358;28;20441;-66
2023/06/21 02:48:17;;;;;;;17.88;16.27;;;;;;;;;;5091255;28;20024;-65
2023/06/21 02:50:42;;;;;;;18.50;16.60;;;;;;;;;;5077627;28;20024;-65
2023/06/21 02:53:07;;;;;;;18.03;16.17;;;;;;;;;;5091448;28;20262;-66
2023/06/21 02:55:32;;;;;;;20.70;18.67;;;;;;;;;;5091169;28;20346;-66
2023/06/21 02:57:58;;;;;;;20.13;15.93;;;;;;;;;;5090628;28;20390;-66
2023/06/21 03:00:27;;;;;;;19.95;17.95;;;;;;;;;;5090697;28;20309;-66
2023/06/21 03:02:53;;;;;;;20.80;15.95;;;;;;;;;;5081899;28;20024;-66
2023/06/21 03:05:18;;;;;;;17.70;15.90;;;;;;;;;;5091546;28;20382;-66
2023/06/21 03:07:44;;;;;;;17.20;15.20;;;;;;;;;;5089815;28;20032;-66
2023/06/21 03:10:13;;;;;;;18.33;14.57;;;;;;;;;;5090817;28;20024;-66
2023/06/21 03:12:42;;;;;;;17.88;15.95;;;;;;;;;;5078012;28;20032;-65
2023/06/21 03:15:08;;;;;;;15.90;14.38;;;;;;;;;;5077925;28;20020;-66
2023/06/21 03:17:33;;;;;;;18.50;16.55;;;;;;;;;;5090640;28;20419;-66
2023/06/21 03:19:59;;;;;;;19.95;16.50;;;;;;;;;;5091244;28;20115;-65
2023/06/21 03:22:24;;;;;;;17.57;15.97;;;;;;;;;;5090403;28;20069;-66
2023/06/21 03:24:49;;;;;;;18.27;16.47;;;;;;;;;;5090250;28;20749;-66
2023/06/21 03:27:14;;;;;;;18.67;16.50;;;;;;;;;;5090568;28;20605;-65
2023/06/21 03:29:40;;;;;;;19.63;17.63;;;;;;;;;;5090471;28;20278;-66
2023/06/21 03:32:05;;;;;;;19.35;17.35;;;;;;;;;;5089316;28;20368;-66
2023/06/21 03:34:30;;;;;;;22.67;20.02;;;;;;;;;;5083959;28;20028;-65
2023/06/21 03:36:56;;;;;;;20.00;18.00;;;;;;;;;;5083992;28;20024;-65
2023/06/21 03:39:21;;;;;;;22.60;20.27;;;;;;;;;;5089900;28;20760;-65
2023/06/21 03:41:47;;;;;;;23.08;20.88;;;;;;;;;;5085775;28;20016;-65
2023/06/21 03:44:12;;;;;;;24.77;20.38;;;;;;;;;;5086783;28;20024;-65
2023/06/21 03:46:37;;;;;;;21.15;18.85;;;;;;;;;;5086638;28;20051;-65
2023/06/21 03:49:04;;;;;;;23.63;21.43;;;;;;;;;;5090748;28;20375;-65
2023/06/21 03:51:29;;;;;;;24.20;20.55;;;;;;;;;;5090653;28;20270;-65
2023/06/21 03:53:55;;;;;;;24.48;18.33;;;;;;;;;;5090152;28;20024;-65
2023/06/21 03:56:20;;;;;;;22.40;20.15;;;;;;;;;;5090609;28;20077;-65
2023/06/21 03:58:45;;;;;;;22.67;20.45;;;;;;;;;;5090183;28;20023;-66
2023/06/21 04:01:10;;;;;;;22.83;20.58;;;;;;;;;;5090410;28;20032;-66
2023/06/21 04:03:36;;;;;;;23.73;20.20;;;;;;;;;;5090128;28;20500;-65
2023/06/21 04:06:01;;;;;;;22.60;20.43;;;;;;;;;;5090542;28;20086;-66
2023/06/21 04:08:26;;;;;;;22.23;19.93;;;;;;;;;;5090271;28;20278;-66
2023/06/21 04:10:52;;;;;;;25.60;21.23;;;;;;;;;;5094331;28;20748;-66
2023/06/21 04:13:17;;;;;;;24.52;20.90;;;;;;;;;;5093347;28;20693;-66
2023/06/21 04:15:43;;;;;;;23.25;20.95;;;;;;;;;;5087358;28;20462;-66
2023/06/21 04:18:08;;;;;;;23.05;20.77;;;;;;;;;;5093499;28;20020;-66
2023/06/21 04:20:33;;;;;;;22.90;20.57;;;;;;;;;;5092997;28;20103;-66
2023/06/21 04:22:58;;;;;;;23.75;20.67;;;;;;;;;;5092565;28;20357;-66
2023/06/21 04:25:24;;;;;;;24.45;22.00;;;;;;;;;;5093517;28;20070;-66
2023/06/21 04:27:49;;;;;;;29.00;25.50;;;;;;;;;;5093439;28;20065;-66
2023/06/21 04:30:14;;;;;;;27.58;24.92;;;;;;;;;;5092552;28;20885;-66
2023/06/21 04:32:45;;;;;;;28.52;25.58;;;;;;;;;;5093454;28;20506;-65
2023/06/21 04:35:14;;;;;;;25.15;22.70;;;;;;;;;;5093008;28;20051;-66
2023/06/21 04:37:44;;;;;;;27.15;24.25;;;;;;;;;;5092449;28;20024;-66
2023/06/21 04:40:11;;;;;;;32.13;28.75;;;;;;;;;;5092861;28;20028;-65
2023/06/21 04:42:37;;;;;;;30.30;27.20;;;;;;;;;;5092254;28;20032;-66
2023/06/21 04:45:02;;;;;;;29.45;26.23;;;;;;;;;;5092760;28;20383;-65
2023/06/21 04:47:28;;;;;;;30.30;26.00;;;;;;;;;;5093134;28;20020;-66
2023/06/21 04:49:53;;;;;;;28.13;25.13;;;;;;;;;;5091821;28;20089;-67
2023/06/21 04:52:18;;;;;;;28.27;25.60;;;;;;;;;;5087473;28;20025;-66
2023/06/21 04:54:43;;;;;;;28.05;25.05;;;;;;;;;;5092947;28;20062;-65
2023/06/21 04:57:12;;;;;;;30.23;26.20;;;;;;;;;;5093468;28;20466;-65
2023/06/21 04:59:37;;;;;;;30.95;27.88;;;;;;;;;;5092944;28;20063;-65
2023/06/21 05:02:03;;;;;;;35.08;29.88;;;;;;;;;;5093516;28;20105;-65
2023/06/21 05:04:28;;;;;;;39.78;29.35;;;;;;;;;;5092954;28;20027;-66
2023/06/21 05:06:53;;;;;;;33.63;30.05;;;;;;;;;;5086768;28;20078;-64
2023/06/21 05:09:18;;;;;;;34.47;30.07;;;;;;;;;;5092569;28;20027;-65
2023/06/21 05:11:44;;;;;;;35.13;31.33;;;;;;;;;;5093029;28;20353;-65
2023/06/21 05:14:10;;;;;;;35.95;32.08;;;;;;;;;;5093024;28;20024;-65
2023/06/21 05:16:35;;;;;;;34.28;30.63;;;;;;;;;;5093178;28;20095;-66
2023/06/21 05:19:00;;;;;;;34.72;31.38;;;;;;;;;;5092136;28;20032;-66
2023/06/21 05:21:25;;;;;;;36.75;31.92;;;;;;;;;;5092322;28;20024;-66
2023/06/21 05:23:51;;;;;;;42.90;29.92;;;;;;;;;;5092352;28;20031;-66
2023/06/21 05:26:17;;;;;;;34.42;29.40;;;;;;;;;;5093088;28;20028;-66
2023/06/21 05:28:42;;;;;;;39.58;35.72;;;;;;;;;;5093115;28;20081;-65
2023/06/21 05:31:08;;;;;;;39.03;33.00;;;;;;;;;;5092897;28;20115;-65
2023/06/21 05:33:34;;;;;;;32.95;29.85;;;;;;;;;;5092281;28;20315;-66
2023/06/21 05:35:59;;;;;;;32.77;29.30;;;;;;;;;;5092836;28;20419;-68
2023/06/21 05:38:24;;;;;;;31.77;28.60;;;;;;;;;;5092557;28;20350;-66
2023/06/21 05:40:49;;;;;;;34.17;29.07;;;;;;;;;;5092419;28;20038;-66
2023/06/21 05:43:15;;;;;;;33.13;28.73;;;;;;;;;;5091993;28;20679;-67
2023/06/21 05:45:40;;;;;;;34.37;31.03;;;;;;;;;;5092656;28;20270;-66
2023/06/21 05:48:05;;;;;;;37.23;29.73;;;;;;;;;;5092649;28;20274;-66
2023/06/21 05:50:30;;;;;;;31.80;28.57;;;;;;;;;;5091962;28;20282;-67
2023/06/21 05:52:59;;;;;;;36.20;31.80;;;;;;;;;;5091911;28;20621;-66
2023/06/21 05:55:24;;;;;;;34.70;30.75;;;;;;;;;;5091914;28;20020;-66
2023/06/21 05:57:50;;;;;;;32.80;29.20;;;;;;;;;;5092349;28;20022;-66
2023/06/21 06:00:16;;;;;;;32.67;28.63;;;;;;;;;;5091661;28;20462;-66
2023/06/21 06:02:41;;;;;;;35.70;31.33;;;;;;;;;;5092189;28;20031;-67
2023/06/21 06:05:06;;;;;;;34.22;30.88;;;;;;;;;;5091764;28;20035;-66
2023/06/21 06:07:32;;;;;;;34.35;27.40;;;;;;;;;;5091710;28;20028;-67
2023/06/21 06:09:57;;;;;;;31.97;28.60;;;;;;;;;;5091710;28;20099;-67
2023/06/21 06:12:22;;;;;;;33.42;25.50;;;;;;;;;;5091956;28;20266;-67
2023/06/21 06:14:48;;;;;;;31.50;28.30;;;;;;;;;;5091725;28;20099;-66
2023/06/21 06:17:13;;;;;;;35.30;26.63;;;;;;;;;;5091742;28;20269;-66
2023/06/21 06:19:38;;;;;;;28.38;25.55;;;;;;;;;;5091611;28;20040;-66
2023/06/21 06:22:04;;;;;;;27.67;22.87;;;;;;;;;;5083178;28;20031;-67
2023/06/21 06:24:29;;;;;;;24.70;22.20;;;;;;;;;;5091105;28;20277;-67
2023/06/21 06:26:54;;;;;;;33.50;24.17;;;;;;;;;;5084025;28;20426;-67
2023/06/21 06:29:19;;;;;;;30.67;23.53;;;;;;;;;;5091104;28;20274;-67
2023/06/21 06:31:45;;;;;;;26.57;23.70;;;;;;;;;;5091208;28;20297;-67
2023/06/21 06:34:10;;;;;;;24.92;22.42;;;;;;;;;;5091120;28;20289;-67
2023/06/21 06:36:35;;;;;;;26.93;23.23;;;;;;;;;;5091289;28;20104;-67
2023/06/21 06:39:00;;;;;;;28.37;22.17;;;;;;;;;;5091722;28;20265;-67
2023/06/21 06:41:27;;;;;;;26.52;23.38;;;;;;;;;;5090993;28;20290;-67
2023/06/21 06:43:52;;;;;;;24.92;21.60;;;;;;;;;;5091046;28;20026;-67
2023/06/21 06:46:17;;;;;;;26.17;23.50;;;;;;;;;;5090956;28;20111;-67
2023/06/21 06:48:42;;;;;;;24.63;22.17;;;;;;;;;;5090551;28;20281;-67
2023/06/21 06:51:08;;;;;;;25.50;23.10;;;;;;;;;;5090923;28;20779;-67
2023/06/21 06:53:33;;;;;;;25.57;22.23;;;;;;;;;;5089674;28;20032;-67
2023/06/21 06:55:59;;;;;;;36.57;23.30;;;;;;;;;;5088158;28;20263;-67
2023/06/21 06:58:24;;;;;;;23.75;20.65;;;;;;;;;;5091037;28;20750;-67
2023/06/21 07:00:50;;;;;;;25.08;21.13;;;;;;;;;;5089857;28;20081;-66
2023/06/21 07:03:15;;;;;;;26.30;20.65;;;;;;;;;;5089825;28;20024;-66
2023/06/21 07:05:44;;;;;;;21.23;18.45;;;;;;;;;;5086162;28;20382;-67
2023/06/21 07:08:10;;;;;;;19.55;16.10;;;;;;;;;;5090254;28;20027;-66
2023/06/21 07:10:35;;;;;;;19.92;16.02;;;;;;;;;;5089868;28;20370;-66
2023/06/21 07:13:02;;;;;;;18.10;14.13;;;;;;;;;;5090827;28;20043;-67
2023/06/21 07:15:27;;;;;;;17.40;13.90;;;;;;;;;;5090773;28;20270;-66
2023/06/21 07:17:52;;;;;;;17.73;14.65;;;;;;;;;;5090315;28;20073;-66
2023/06/21 07:20:18;;;;;;;17.57;13.67;;;;;;;;;;5091091;28;20470;-67
2023/06/21 07:22:43;;;;;;;17.50;15.17;;;;;;;;;;5084588;28;20811;-67
2023/06/21 07:25:08;;;;;;;13.20;11.70;;;;;;;;;;5089841;28;20713;-67
2023/06/21 07:27:33;;;;;;;13.32;11.95;;;;;;;;;;5089259;28;20649;-67
2023/06/21 07:29:59;;;;;;;14.05;11.73;;;;;;;;;;5091260;28;20023;-67
2023/06/21 07:32:24;;;;;;;12.57;10.93;;;;;;;;;;5091068;28;20028;-67
2023/06/21 07:34:49;;;;;;;17.77;13.83;;;;;;;;;;5091094;28;20024;-67
2023/06/21 07:37:15;;;;;;;16.05;12.82;;;;;;;;;;5090946;28;20273;-66
2023/06/21 07:39:40;;;;;;;13.85;11.32;;;;;;;;;;5091373;28;20055;-66
2023/06/21 07:42:07;;;;;;;13.52;10.48;;;;;;;;;;5090986;28;20036;-66
2023/06/21 07:44:33;;;;;;;14.82;12.50;;;;;;;;;;5088458;28;20070;-66
2023/06/21 07:46:58;;;;;;;16.70;11.57;;;;;;;;;;5084781;28;20468;-66
2023/06/21 07:49:23;;;;;;;14.45;12.52;;;;;;;;;;5094857;28;20503;-66
2023/06/21 07:51:49;;;;;;;13.60;11.70;;;;;;;;;;5094631;28;20032;-66
2023/06/21 07:54:14;;;;;;;15.75;11.73;;;;;;;;;;5094516;28;20038;-66
2023/06/21 07:56:40;;;;;;;13.57;11.33;;;;;;;;;;5080727;28;20036;-67
2023/06/21 07:59:05;;;;;;;14.52;11.05;;;;;;;;;;5072674;28;20641;-67
2023/06/21 08:01:30;;;;;;;12.98;10.45;;;;;;;;;;5088727;28;20035;-67
2023/06/21 08:03:57;;;;;;;12.50;9.77;;;;;;;;;;5094600;28;20108;-66
2023/06/21 08:06:23;;;;;;;12.43;9.43;;;;;;;;;;5093955;28;20827;-67
2023/06/21 08:08:48;;;;;;;13.73;10.30;;;;;;;;;;5093840;28;20028;-67
2023/06/21 08:11:14;;;;;;;13.63;10.38;;;;;;;;;;5093940;28;20752;-66
2023/06/21 08:13:39;;;;;;;12.85;10.18;;;;;;;;;;5094214;28;20435;-67
2023/06/21 08:16:04;;;;;;;15.30;10.43;;;;;;;;;;5093780;28;20020;-67
2023/06/21 08:18:29;;;;;;;11.17;9.53;;;;;;;;;;5094544;28;20704;-67
2023/06/21 08:20:55;;;;;;;11.67;10.33;;;;;;;;;;5093708;28;20297;-66
2023/06/21 08:23:20;;;;;;;17.23;10.83;;;;;;;;;;5094019;28;20311;-66
2023/06/21 08:25:46;;;;;;;11.10;10.02;;;;;;;;;;5093375;28;20309;-66
2023/06/21 08:28:12;;;;;;;12.50;10.38;;;;;;;;;;5094470;28;20028;-66
2023/06/21 08:30:37;;;;;;;13.00;10.48;;;;;;;;;;5093425;28;20463;-65
2023/06/21 08:33:02;;;;;;;12.83;10.50;;;;;;;;;;5081572;28;20020;-66
2023/06/21 08:35:27;;;;;;;12.63;9.43;;;;;;;;;;5093926;28;20383;-66
2023/06/21 08:37:57;;;;;;;12.88;9.32;;;;;;;;;;5087990;28;20024;-66
2023/06/21 08:40:24;;;;;;;11.65;8.75;;;;;;;;;;5087492;28;20032;-67
2023/06/21 08:42:49;;;;;;;22.88;9.07;;;;;;;;;;5091057;28;20379;-66
2023/06/21 08:45:14;;;;;;;14.30;9.03;;;;;;;;;;5084335;28;20022;-66
2023/06/21 08:47:41;;;;;;;8.27;7.03;;;;;;;;;;5093972;28;20301;-66
2023/06/21 08:50:06;;;;;;;11.50;7.53;;;;;;;;;;5093799;28;20027;-66
2023/06/21 08:52:32;;;;;;;10.88;7.30;;;;;;;;;;5093262;28;20024;-66
2023/06/21 08:55:03;;;;;;;10.45;7.38;;;;;;;;;;5093045;28;20031;-66
2023/06/21 08:57:29;;;;;;;9.98;7.43;;;;;;;;;;5093450;28;20032;-65
2023/06/21 09:00:02;;;;;;;11.20;8.70;;;;;;;;;;5093125;28;20028;-67
2023/06/21 09:02:48;;;;;;;10.27;7.82;;;;;;;;;;5094155;28;20057;-67
2023/06/21 09:05:16;;;;;;;9.50;8.55;;;;;;;;;;5092996;28;20107;-66
2023/06/21 09:07:42;;;;;;;10.65;9.25;;;;;;;;;;5093901;28;20030;-67
2023/06/21 09:10:08;;;;;;;11.00;7.88;;;;;;;;;;5092917;28;20027;-67
2023/06/21 09:12:34;;;;;;;10.23;8.73;;;;;;;;;;5093150;28;20386;-67
2023/06/21 09:15:00;;;;;;;13.32;7.72;;;;;;;;;;5093094;28;20416;-67
2023/06/21 09:17:26;;;;;;;9.65;7.63;;;;;;;;;;5093387;28;20111;-67
2023/06/21 09:19:52;;;;;;;11.63;7.00;;;;;;;;;;5092829;28;20028;-67
2023/06/21 09:22:18;;;;;;;7.93;6.65;;;;;;;;;;5092969;28;20493;-67
2023/06/21 09:24:44;;;;;;;13.18;7.18;;;;;;;;;;5079631;28;20020;-67
2023/06/21 09:27:09;;;;;;;8.20;7.40;;;;;;;;;;5092903;28;20398;-67
2023/06/21 09:29:35;;;;;;;10.45;7.10;;;;;;;;;;5092666;28;20020;-66
2023/06/21 09:32:01;;;;;;;7.13;6.43;;;;;;;;;;5093490;28;20116;-66
2023/06/21 09:34:27;;;;;;;10.98;6.03;;;;;;;;;;5092601;28;20023;-67
2023/06/21 09:36:53;;;;;;;6.97;5.93;;;;;;;;;;5093087;28;20027;-67
2023/06/21 09:39:18;;;;;;;7.95;5.93;;;;;;;;;;5092460;28;20103;-66
2023/06/21 09:41:44;;;;;;;8.43;5.67;;;;;;;;;;5080023;28;20095;-68
2023/06/21 09:44:09;;;;;;;8.27;6.10;;;;;;;;;;5082340;28;20336;-67
2023/06/21 09:46:35;;;;;;;8.52;6.13;;;;;;;;;;5090947;28;20131;-65
2023/06/21 09:49:07;;;;;;;7.28;6.28;;;;;;;;;;5091711;28;20057;-65
2023/06/21 09:51:33;;;;;;;7.25;5.63;;;;;;;;;;5092559;28;20027;-66
2023/06/21 09:54:02;;;;;;;6.60;5.00;;;;;;;;;;5092313;28;20032;-66
2023/06/21 09:56:31;;;;;;;5.18;4.72;;;;;;;;;;5092906;28;21221;-66
2023/06/21 09:58:57;;;;;;;7.28;5.05;;;;;;;;;;5090990;28;20020;-66
2023/06/21 10:01:25;;;;;;;6.47;4.50;;;;;;;;;;5092277;28;20051;-66
2023/06/21 10:03:50;;;;;;;10.38;4.75;;;;;;;;;;5091885;28;20019;-66
2023/06/21 10:06:18;;;;;;;6.65;5.20;;;;;;;;;;5090903;28;20107;-66
2023/06/21 10:08:43;;;;;;;4.68;4.25;;;;;;;;;;5092113;28;20020;-66
2023/06/21 10:11:09;;;;;;;4.85;4.35;;;;;;;;;;5090709;28;20035;-65
2023/06/21 10:13:38;;;;;;;10.38;5.25;;;;;;;;;;5092345;28;20034;-66
2023/06/21 10:16:03;;;;;;;9.93;4.35;;;;;;;;;;5092286;28;20028;-66
2023/06/21 10:18:29;;;;;;;5.50;4.25;;;;;;;;;;5091615;28;20035;-66
2023/06/21 10:21:04;;;;;;;5.28;4.45;;;;;;;;;;5090069;28;20047;-66
2023/06/21 10:23:36;;;;;;;8.15;5.13;;;;;;;;;;5091681;28;20020;-66
2023/06/21 10:26:04;;;;;;;8.00;5.05;;;;;;;;;;5091343;28;20024;-65
2023/06/21 10:28:31;;;;;;;6.82;4.80;;;;;;;;;;5082434;28;20029;-66
2023/06/21 10:30:57;;;;;;;7.50;4.63;;;;;;;;;;5088260;28;20044;-65
2023/06/21 10:33:23;;;;;;;5.28;4.30;;;;;;;;;;5090968;28;20066;-65
2023/06/21 10:35:51;;;;;;;5.07;3.92;;;;;;;;;;5087873;28;20016;-65
2023/06/21 10:38:23;;;;;;;10.18;4.35;;;;;;;;;;5091851;28;20085;-65
2023/06/21 10:40:49;;;;;;;4.88;4.15;;;;;;;;;;5091515;28;20036;-65
2023/06/21 10:43:14;;;;;;;5.43;4.25;;;;;;;;;;5090849;28;20028;-66
2023/06/21 10:45:40;;;;;;;8.27;4.45;;;;;;;;;;5090180;28;20082;-66
2023/06/21 10:48:06;;;;;;;6.20;4.65;;;;;;;;;;5090908;28;20043;-66
2023/06/21 10:50:31;;;;;;;5.47;4.70;;;;;;;;;;5090581;28;20473;-67
2023/06/21 10:52:57;;;;;;;5.78;4.38;;;;;;;;;;5091314;28;20016;-66
2023/06/21 10:55:23;;;;;;;5.90;4.80;;;;;;;;;;5091243;28;20081;-66
2023/06/21 10:57:52;;;;;;;7.00;5.25;;;;;;;;;;5091070;28;20020;-66
2023/06/21 11:00:19;;;;;;;6.20;5.05;;;;;;;;;;5091479;28;20031;-67
2023/06/21 11:02:44;;;;;;;5.63;4.25;;;;;;;;;;5091295;28;20162;-66
2023/06/21 11:05:12;;;;;;;7.95;4.32;;;;;;;;;;5090246;28;20103;-67
2023/06/21 11:07:38;;;;;;;5.97;5.10;;;;;;;;;;5090796;28;20495;-65
2023/06/21 11:10:06;;;;;;;7.65;4.97;;;;;;;;;;5090852;28;20050;-66
2023/06/21 11:12:34;;;;;;;6.35;4.75;;;;;;;;;;5090738;28;20031;-65
2023/06/21 11:14:59;;;;;;;5.68;4.90;;;;;;;;;;5090703;28;20035;-67
2023/06/21 11:17:25;;;;;;;5.25;4.38;;;;;;;;;;5090834;28;20032;-66
2023/06/21 11:19:50;;;;;;;5.78;4.43;;;;;;;;;;5093544;28;20482;-66
2023/06/21 11:22:16;;;;;;;6.35;4.20;;;;;;;;;;5094642;28;20020;-66
2023/06/21 11:24:58;;;;;;;6.43;4.93;;;;;;;;;;5093789;28;20024;-66
2023/06/21 11:27:25;;;;;;;11.13;4.93;;;;;;;;;;5093762;28;20055;-67
2023/06/21 11:29:59;;;;;;;7.30;5.03;;;;;;;;;;5094025;28;20031;-67
2023/06/21 11:32:27;;;;;;;5.70;5.10;;;;;;;;;;5090125;28;20136;-65
2023/06/21 11:34:58;;;;;;;4.93;3.92;;;;;;;;;;5094360;28;20089;-66
2023/06/21 11:37:39;;;;;;;7.78;4.28;;;;;;;;;;5093659;28;20383;-66
2023/06/21 11:40:05;;;;;;;5.20;4.65;;;;;;;;;;5085615;28;20379;-67
2023/06/21 11:42:35;;;;;;;6.68;4.45;;;;;;;;;;5093651;28;20020;-67
2023/06/21 11:45:16;;;;;;;4.68;3.97;;;;;;;;;;5091254;28;20118;-67
2023/06/21 11:48:05;;;;;;;5.22;3.95;;;;;;;;;;5091051;28;20038;-67
2023/06/21 11:50:32;;;;;;;5.10;4.32;;;;;;;;;;5094072;28;20046;-67
2023/06/21 11:53:10;;;;;;;4.65;4.20;;;;;;;;;;5083521;28;20013;-67
2023/06/21 11:55:37;;;;;;;5.90;4.20;;;;;;;;;;5092584;28;20024;-67
2023/06/21 11:58:02;;;;;;;6.40;3.75;;;;;;;;;;5077038;28;20047;-67
2023/06/21 12:00:28;;;;;;;10.17;4.20;;;;;;;;;;5080570;28;20590;-67
2023/06/21 12:02:54;;;;;;;7.30;4.25;;;;;;;;;;5092923;28;20012;-67
2023/06/21 12:05:19;;;;;;;10.02;3.90;;;;;;;;;;5093279;28;20028;-67
2023/06/21 12:07:44;;;;;;;4.90;4.40;;;;;;;;;;5092766;28;20031;-68
2023/06/21 12:10:10;;;;;;;4.67;3.87;;;;;;;;;;5093236;28;20274;-67
2023/06/21 12:12:36;;;;;;;6.32;3.78;;;;;;;;;;5093632;28;20544;-67
2023/06/21 12:15:01;;;;;;;5.07;4.28;;;;;;;;;;5094150;28;20524;-67
2023/06/21 12:17:26;;;;;;;10.03;4.47;;;;;;;;;;5093149;28;20066;-68
2023/06/21 12:19:51;;;;;;;6.80;4.60;;;;;;;;;;5093863;28;20315;-67
2023/06/21 12:22:20;;;;;;;7.77;3.90;;;;;;;;;;5093816;28;20327;-67
2023/06/21 12:24:45;;;;;;;4.82;3.83;;;;;;;;;;5094005;28;20270;-68
2023/06/21 12:27:12;;;;;;;5.50;3.50;;;;;;;;;;5093337;28;20027;-67
2023/06/21 12:29:37;;;;;;;4.95;3.95;;;;;;;;;;5092478;28;20016;-67
2023/06/21 12:32:03;;;;;;;5.10;3.70;;;;;;;;;;5092927;28;20031;-66
2023/06/21 12:34:28;;;;;;;7.45;3.65;;;;;;;;;;5093853;28;20309;-66
2023/06/21 12:36:54;;;;;;;4.93;3.37;;;;;;;;;;5092587;28;20467;-65
2023/06/21 12:39:21;;;;;;;4.50;3.33;;;;;;;;;;5093516;28;20032;-66
2023/06/21 12:41:46;;;;;;;3.90;3.10;;;;;;;;;;5093159;28;20031;-67
2023/06/21 12:44:18;;;;;;;8.00;3.67;;;;;;;;;;5093223;28;20401;-67
2023/06/21 12:46:44;;;;;;;6.65;3.88;;;;;;;;;;5093701;28;20020;-66
2023/06/21 12:49:11;;;;;;;5.03;3.70;;;;;;;;;;5093478;28;20051;-67
2023/06/21 12:51:37;;;;;;;4.05;3.10;;;;;;;;;;5093331;28;20164;-66
2023/06/21 12:54:04;;;;;;;6.90;3.60;;;;;;;;;;5092603;28;20450;-65
2023/06/21 12:56:30;;;;;;;6.07;3.42;;;;;;;;;;5086455;28;20119;-65
2023/06/21 12:58:58;;;;;;;7.18;3.78;;;;;;;;;;5092166;28;20073;-65
2023/06/21 13:01:24;;;;;;;4.90;3.45;;;;;;;;;;5091163;28;20052;-66
2023/06/21 13:03:49;;;;;;;14.48;4.20;;;;;;;;;;5092510;28;20051;-64
2023/06/21 13:06:14;;;;;;;4.68;3.25;;;;;;;;;;5092336;28;20032;-65
2023/06/21 13:08:40;;;;;;;5.32;3.30;;;;;;;;;;5089435;28;20020;-65
2023/06/21 13:11:05;;;;;;;6.50;3.37;;;;;;;;;;5093285;28;20041;-64
2023/06/21 13:13:30;;;;;;;3.77;2.80;;;;;;;;;;5092954;28;20020;-64
2023/06/21 13:15:58;;;;;;;3.90;2.90;;;;;;;;;;5092208;28;20020;-67
2023/06/21 13:18:23;;;;;;;4.53;2.92;;;;;;;;;;5088011;28;20409;-66
2023/06/21 13:20:50;;;;;;;4.32;2.80;;;;;;;;;;5091931;28;20119;-65
2023/06/21 13:23:16;;;;;;;6.88;3.60;;;;;;;;;;5092884;28;20028;-65
2023/06/21 13:25:41;;;;;;;4.13;3.73;;;;;;;;;;5092953;28;20463;-65
2023/06/21 13:28:06;;;;;;;5.20;3.78;;;;;;;;;;5092510;28;20280;-66
2023/06/21 13:30:31;;;;;;;6.17;3.80;;;;;;;;;;5092197;28;20031;-65
2023/06/21 13:32:57;;;;;;;5.57;3.93;;;;;;;;;;5092631;28;20756;-66
2023/06/21 13:35:22;;;;;;;5.20;3.83;;;;;;;;;;5092039;28;20421;-64
2023/06/21 13:37:47;;;;;;;5.67;3.90;;;;;;;;;;5092186;28;20277;-67
2023/06/21 13:40:13;;;;;;;5.20;3.60;;;;;;;;;;5087490;28;20732;-66
2023/06/21 13:42:38;;;;;;;8.15;4.05;;;;;;;;;;5092106;28;20361;-66
2023/06/21 13:45:03;;;;;;;4.28;3.53;;;;;;;;;;5092438;28;20063;-66
2023/06/21 13:47:29;;;;;;;6.32;3.78;;;;;;;;;;5092402;28;20103;-65
2023/06/21 13:49:55;;;;;;;4.13;3.17;;;;;;;;;;5091816;28;20447;-69
2023/06/21 13:52:22;;;;;;;5.32;3.88;;;;;;;;;;5091151;28;20024;-65
2023/06/21 13:54:47;;;;;;;4.97;3.88;;;;;;;;;;5091696;28;20370;-65
2023/06/21 13:57:14;;;;;;;7.18;4.13;;;;;;;;;;5092043;28;20031;-66
2023/06/21 13:59:43;;;;;;;8.13;3.60;;;;;;;;;;5091823;28;20063;-66
2023/06/21 14:02:08;;;;;;;4.72;3.50;;;;;;;;;;5087342;28;20032;-67
2023/06/21 14:04:34;;;;;;;8.10;3.47;;;;;;;;;;5091941;28;20032;-65
2023/06/21 14:06:59;;;;;;;4.60;3.38;;;;;;;;;;5092309;28;20101;-66
2023/06/21 14:09:24;;;;;;;3.50;3.10;;;;;;;;;;5091737;28;20119;-66
2023/06/21 14:11:50;;;;;;;8.67;3.03;;;;;;;;;;5091633;28;20274;-66
2023/06/21 14:14:18;;;;;;;4.57;2.95;;;;;;;;;;5091104;28;20745;-65
2023/06/21 14:16:43;;;;;;;6.50;3.63;;;;;;;;;;5091669;28;20020;-65
2023/06/21 14:19:10;;;;;;;3.70;3.07;;;;;;;;;;5090621;28;20139;-65
2023/06/21 14:21:35;;;;;;;4.47;3.45;;;;;;;;;;5091511;28;20290;-65